Time;durP1;ratioP1;P1;durP2;ratioP2;P2;SDS_P1;SDS_P2;PMS_P1;PMS_P2;Temp;Humidity;BMP_temperature;BMP_pressure;BME280_temperature;BME280_humidity;BME280_pressure;Samples;Min_cycle;Max_cycle;Signal;HPM_P1;HPM_P2
2023/12/10 00:00:52;;;;;;;67.80;29.20;;;;;;;0.31;100.00;99644.28;5046263;57;1139116;-80
2023/12/10 00:05:59;;;;;;;62.03;27.23;;;;;;;0.29;100.00;99643.55;5066117;57;1138942;-83
2023/12/10 00:11:05;;;;;;;59.83;28.20;;;;;;;0.26;100.00;99649.73;4995828;57;1139136;-79
2023/12/10 00:16:11;;;;;;;55.60;27.53;;;;;;;0.22;100.00;99640.39;4960523;56;1139039;-81
2023/12/10 00:21:17;;;;;;;58.57;27.77;;;;;;;0.14;100.00;99639.95;4949762;57;1138865;-79
2023/12/10 00:26:22;;;;;;;62.33;28.90;;;;;;;0.12;100.00;99639.17;4937841;58;1138714;-79
2023/12/10 00:31:29;;;;;;;63.13;28.50;;;;;;;0.08;100.00;99623.79;4850351;58;1139038;-79
2023/12/10 00:36:35;;;;;;;54.23;26.90;;;;;;;0.04;100.00;99629.59;4876053;58;1138987;-78
2023/12/10 00:41:40;;;;;;;55.73;27.05;;;;;;;-0.01;100.00;99618.59;4874135;58;1139104;-79
2023/12/10 00:46:46;;;;;;;56.05;27.20;;;;;;;-0.03;100.00;99623.87;4905905;57;1140914;-84
2023/12/10 00:51:52;;;;;;;54.83;27.95;;;;;;;-0.08;100.00;99619.34;4874083;58;1141016;-81
2023/12/10 00:56:58;;;;;;;55.57;26.17;;;;;;;-0.10;100.00;99617.27;4820178;59;1140833;-81
2023/12/10 01:02:03;;;;;;;52.57;26.27;;;;;;;-0.13;100.00;99617.41;4874197;58;1141117;-79
2023/12/10 01:07:11;;;;;;;54.80;26.33;;;;;;;-0.14;100.00;99599.29;4800413;58;1140956;-80
2023/12/10 01:12:17;;;;;;;57.57;27.50;;;;;;;-0.15;100.00;99595.84;4893618;58;1141059;-79
2023/12/10 01:17:23;;;;;;;55.78;26.87;;;;;;;-0.16;100.00;99597.25;4874567;57;1140799;-81
2023/12/10 01:22:28;;;;;;;52.10;25.00;;;;;;;-0.18;100.00;99596.48;4889146;57;1140839;-77
2023/12/10 01:27:35;;;;;;;56.35;25.37;;;;;;;-0.21;100.00;99588.83;5075203;55;1140795;-78
2023/12/10 01:32:41;;;;;;;54.37;26.83;;;;;;;-0.22;100.00;99577.59;5047767;55;1143453;-79
2023/12/10 01:37:47;;;;;;;57.13;26.77;;;;;;;-0.29;100.00;99567.09;4936164;56;1140982;-78
2023/12/10 01:42:53;;;;;;;60.73;24.87;;;;;;;-0.29;100.00;99567.09;4966511;56;1140826;-83
2023/12/10 01:48:00;;;;;;;48.73;22.57;;;;;;;-0.31;100.00;99579.34;4985807;56;1140601;-78
2023/12/10 01:53:08;;;;;;;50.97;23.23;;;;;;;-0.37;100.00;99560.99;4965481;56;1141095;-79
2023/12/10 01:58:14;;;;;;;48.93;23.77;;;;;;;-0.38;100.00;99563.66;5049623;56;1140699;-83
2023/12/10 02:03:20;;;;;;;49.40;23.03;;;;;;;-0.41;100.00;99580.68;5143109;56;1141118;-83
2023/12/10 02:08:25;;;;;;;52.73;23.03;;;;;;;-0.39;100.00;99571.91;5123211;56;1140766;-80
2023/12/10 02:13:31;;;;;;;47.80;24.17;;;;;;;-0.40;100.00;99557.23;5123623;56;1140706;-79
2023/12/10 02:18:37;;;;;;;46.60;23.77;;;;;;;-0.41;100.00;99564.64;5105646;55;1140672;-82
2023/12/10 02:24:06;;;;;;;45.57;23.20;;;;;;;-0.36;100.00;99578.72;5045639;55;1150757;-78
2023/12/10 02:29:12;;;;;;;46.73;22.77;;;;;;;-0.35;100.00;99551.83;4965631;57;1141146;-79
2023/12/10 02:34:18;;;;;;;43.07;21.10;;;;;;;-0.34;100.00;99550.91;4964139;57;1141043;-79
2023/12/10 02:39:24;;;;;;;46.13;22.83;;;;;;;-0.35;100.00;99559.63;4972853;57;1140818;-81
2023/12/10 02:44:30;;;;;;;43.63;21.77;;;;;;;-0.34;100.00;99556.56;4954104;57;1140680;-81
2023/12/10 02:49:37;;;;;;;50.63;24.37;;;;;;;-0.34;100.00;99557.86;4953973;57;1140830;-82
2023/12/10 02:54:43;;;;;;;47.90;25.53;;;;;;;-0.33;100.00;99567.34;5017189;57;1141106;-80
2023/12/10 02:59:49;;;;;;;40.58;21.42;;;;;;;-0.32;100.00;99572.92;5030779;57;1140920;-79
2023/12/10 03:04:55;;;;;;;43.55;23.18;;;;;;;-0.31;100.00;99570.25;5031021;57;1140749;-83
2023/12/10 03:10:00;;;;;;;44.70;24.27;;;;;;;-0.31;100.00;99572.02;5050838;57;1140517;-81
2023/12/10 03:15:07;;;;;;;43.08;22.77;;;;;;;-0.31;100.00;99558.56;5032864;57;1140996;-80
2023/12/10 03:20:12;;;;;;;47.40;23.50;;;;;;;-0.29;100.00;99559.30;5034537;56;1140606;-82
2023/12/10 03:25:18;;;;;;;41.23;21.90;;;;;;;-0.30;100.00;99555.48;5055207;55;1141040;-83
2023/12/10 03:30:23;;;;;;;42.57;22.07;;;;;;;-0.30;100.00;99560.22;5035139;56;1140752;-79
2023/12/10 03:35:29;;;;;;;44.03;21.30;;;;;;;-0.28;100.00;99549.75;5035739;56;1140716;-80
2023/12/10 03:40:35;;;;;;;45.03;22.33;;;;;;;-0.25;100.00;99547.86;5066994;56;1140882;-82
2023/12/10 03:45:41;;;;;;;46.40;22.83;;;;;;;-0.24;100.00;99539.60;5047802;55;1144299;-84
2023/12/10 03:50:47;;;;;;;47.10;21.97;;;;;;;-0.26;100.00;99541.43;5047203;56;1140977;-78
2023/12/10 03:55:52;;;;;;;39.90;21.40;;;;;;;-0.25;100.00;99541.81;5047413;56;1140957;-83
2023/12/10 04:00:58;;;;;;;45.53;21.57;;;;;;;-0.23;100.00;99539.53;5066243;56;1141043;-81
2023/12/10 04:06:04;;;;;;;45.85;23.02;;;;;;;-0.26;100.00;99537.53;5046330;56;1140843;-79
2023/12/10 04:11:10;;;;;;;41.57;22.13;;;;;;;-0.24;100.00;99544.34;5047625;55;1140775;-80
2023/12/10 04:16:30;;;;;;;44.80;22.50;;;;;;;-0.23;100.00;99538.23;5066840;55;1140909;-83
2023/12/10 04:21:36;;;;;;;41.88;21.07;;;;;;;-0.19;100.00;99535.03;5048213;55;1140512;-78
2023/12/10 04:26:42;;;;;;;44.30;22.43;;;;;;;-0.20;100.00;99527.70;5048056;55;1140892;-79
2023/12/10 04:31:48;;;;;;;44.63;22.33;;;;;;;-0.22;100.00;99528.68;4954498;57;1140796;-81
2023/12/10 04:36:54;;;;;;;44.33;23.32;;;;;;;-0.19;100.00;99538.93;5067557;57;1140775;-83
2023/12/10 04:42:00;;;;;;;47.67;21.93;;;;;;;-0.20;100.00;99539.84;5037199;56;1141169;-83
2023/12/10 04:47:05;;;;;;;46.57;22.03;;;;;;;-0.22;100.00;99549.01;5034902;56;1140955;-79
2023/12/10 04:52:11;;;;;;;40.53;20.60;;;;;;;-0.22;100.00;99553.36;5055528;56;1141002;-81
2023/12/10 04:57:17;;;;;;;39.37;21.20;;;;;;;-0.20;100.00;99561.47;5035057;56;1140947;-82
2023/12/10 05:02:23;;;;;;;44.83;22.30;;;;;;;-0.16;100.00;99558.27;5034650;56;1140731;-79
2023/12/10 05:07:28;;;;;;;41.60;20.97;;;;;;;-0.17;100.00;99565.23;5052019;56;1140970;-80
2023/12/10 05:12:34;;;;;;;42.98;22.17;;;;;;;-0.17;100.00;99561.78;5029229;56;1141045;-82
2023/12/10 05:17:40;;;;;;;40.90;22.10;;;;;;;-0.19;100.00;99576.15;5011157;56;1141223;-80
2023/12/10 05:22:46;;;;;;;44.50;20.02;;;;;;;-0.18;100.00;99588.23;5046577;55;1148109;-79
2023/12/10 05:27:52;;;;;;;40.33;21.53;;;;;;;-0.13;100.00;99568.49;4971963;57;1140676;-80
2023/12/10 05:32:58;;;;;;;42.63;20.47;;;;;;;-0.13;100.00;99574.98;4887454;57;1140840;-79
2023/12/10 05:38:06;;;;;;;42.38;20.72;;;;;;;-0.10;100.00;99596.48;4992944;56;1140953;-84
2023/12/10 05:43:11;;;;;;;39.97;21.33;;;;;;;-0.11;100.00;99593.49;5055446;56;1141158;-82
2023/12/10 05:48:17;;;;;;;42.00;22.20;;;;;;;-0.11;100.00;99593.49;5035605;56;1140720;-85
2023/12/10 05:53:22;;;;;;;43.13;21.42;;;;;;;-0.10;100.00;99598.23;5035373;56;1140955;-76
2023/12/10 05:58:28;;;;;;;41.07;21.30;;;;;;;-0.06;100.00;99591.98;5054634;56;1140519;-84
2023/12/10 06:03:34;;;;;;;49.43;26.17;;;;;;;-0.07;100.00;99601.53;5035093;55;1140713;-81
2023/12/10 06:08:41;;;;;;;39.37;21.20;;;;;;;-0.05;100.00;99604.91;5024431;56;1141042;-79
2023/12/10 06:13:46;;;;;;;46.37;22.53;;;;;;;-0.02;100.00;99611.72;5035412;56;1140990;-82
2023/12/10 06:18:52;;;;;;;46.33;23.40;;;;;;;0.00;100.00;99612.48;5055777;56;1140862;-83
2023/12/10 06:23:58;;;;;;;46.85;22.00;;;;;;;0.00;100.00;99608.59;5035563;56;1138855;-84
2023/12/10 06:29:03;;;;;;;43.10;21.45;;;;;;;0.05;100.00;99631.28;5034793;56;1138908;-83
2023/12/10 06:34:09;;;;;;;45.60;21.77;;;;;;;0.06;100.00;99620.42;5055382;56;1138595;-83
2023/12/10 06:39:16;;;;;;;42.70;21.93;;;;;;;0.10;100.00;99622.80;5035380;56;1138761;-81
2023/12/10 06:44:22;;;;;;;48.50;23.33;;;;;;;0.08;100.00;99606.44;5035811;56;1138538;-80
2023/12/10 06:49:27;;;;;;;49.47;22.43;;;;;;;0.12;100.00;99627.48;5055407;56;1138923;-86
2023/12/10 06:54:33;;;;;;;46.10;21.50;;;;;;;0.14;100.00;99632.14;5035740;56;1138656;-82
2023/12/10 06:59:39;;;;;;;43.17;21.33;;;;;;;0.14;100.00;99631.30;5068617;55;1138795;-84
2023/12/10 07:04:45;;;;;;;48.10;21.00;;;;;;;0.17;100.00;99633.73;5007329;57;1138747;-84
2023/12/10 07:09:50;;;;;;;42.80;20.93;;;;;;;0.16;100.00;99632.88;4988504;57;1138827;-83
2023/12/10 07:14:56;;;;;;;44.30;21.60;;;;;;;0.16;100.00;99637.23;4991512;57;1138922;-79
2023/12/10 07:20:02;;;;;;;45.23;22.13;;;;;;;0.17;100.00;99633.73;5004414;57;1138754;-77
2023/12/10 07:25:08;;;;;;;42.37;21.90;;;;;;;0.18;100.00;99649.71;5001588;57;1138567;-83
2023/12/10 07:30:14;;;;;;;40.47;21.07;;;;;;;0.15;100.00;99655.09;5012327;56;1138751;-86
2023/12/10 07:35:19;;;;;;;51.97;24.90;;;;;;;0.12;100.00;99663.03;5055071;57;1138812;-81
2023/12/10 07:40:25;;;;;;;45.20;22.30;;;;;;;0.12;100.00;99672.97;5007113;56;1138676;-84
2023/12/10 07:45:31;;;;;;;77.20;52.07;;;;;;;0.14;100.00;99684.59;5039099;57;1138672;-83
2023/12/10 07:50:38;;;;;;;63.67;39.43;;;;;;;0.16;100.00;99679.69;5041708;56;1138395;-84
2023/12/10 07:55:44;;;;;;;46.67;23.70;;;;;;;0.22;100.00;99672.05;5044672;57;1138485;-81
2023/12/10 08:00:51;;;;;;;43.95;22.52;;;;;;;0.24;100.00;99673.67;5045839;56;1138847;-81
2023/12/10 08:05:57;;;;;;;47.03;22.67;;;;;;;0.24;100.00;99679.33;5023805;57;1138991;-81
2023/12/10 08:11:05;;;;;;;43.00;23.23;;;;;;;0.23;100.00;99683.69;4985254;56;1138577;-82
2023/12/10 08:16:10;;;;;;;46.02;24.23;;;;;;;0.22;100.00;99684.59;4907404;57;1138738;-76
2023/12/10 08:21:16;;;;;;;62.87;36.93;;;;;;;0.26;100.00;99686.14;4822051;58;1138926;-80
2023/12/10 08:26:22;;;;;;;43.63;24.03;;;;;;;0.25;100.00;99688.81;4971997;57;1138611;-80
2023/12/10 08:31:27;;;;;;;51.57;23.57;;;;;;;0.29;100.00;99702.91;4926026;57;1138836;-79
2023/12/10 08:36:33;;;;;;;42.03;21.97;;;;;;;0.33;100.00;99710.92;4953217;57;1138684;-84
2023/12/10 08:41:39;;;;;;;44.47;23.27;;;;;;;0.35;100.00;99711.69;4972814;57;1138998;-80
2023/12/10 08:46:44;;;;;;;45.33;23.47;;;;;;;0.36;100.00;99713.83;4950954;57;1138863;-80
2023/12/10 08:51:50;;;;;;;55.13;26.53;;;;;;;0.37;100.00;99714.67;5033896;57;1138853;-82
2023/12/10 08:56:55;;;;;;;66.72;29.82;;;;;;;0.40;100.00;99709.33;5033920;56;1138814;-78
2023/12/10 09:02:02;;;;;;;68.70;28.17;;;;;;;0.45;100.00;99706.05;5054395;56;1138540;-79
2023/12/10 09:07:08;;;;;;;56.90;28.83;;;;;;;0.49;100.00;99700.61;5034988;56;1138832;-78
2023/12/10 09:12:13;;;;;;;58.03;29.33;;;;;;;0.53;100.00;99710.41;5034468;56;1138903;-78
2023/12/10 09:17:20;;;;;;;61.27;29.40;;;;;;;0.52;100.00;99710.02;5053894;56;1138852;-78
2023/12/10 09:22:25;;;;;;;59.13;25.87;;;;;;;0.53;100.00;99713.85;5035472;56;1138662;-78
2023/12/10 09:27:31;;;;;;;49.43;26.43;;;;;;;0.58;100.00;99706.67;5034343;56;1138817;-79
2023/12/10 09:32:37;;;;;;;55.27;29.47;;;;;;;0.61;100.00;99706.98;5054796;56;1139133;-77
2023/12/10 09:37:44;;;;;;;53.08;28.92;;;;;;;0.64;100.00;99707.65;5053179;57;1138692;-78
2023/12/10 09:42:50;;;;;;;47.75;24.85;;;;;;;0.67;100.00;99717.06;5019813;56;1138650;-77
2023/12/10 09:47:55;;;;;;;57.40;26.82;;;;;;;0.69;100.00;99704.83;5035156;56;1138904;-77
2023/12/10 09:53:02;;;;;;;69.13;32.40;;;;;;;0.72;100.00;99701.23;5066234;57;1139021;-77
2023/12/10 09:58:08;;;;;;;43.90;23.20;;;;;;;0.75;100.00;99701.08;5044750;56;1138852;-73
2023/12/10 10:03:14;;;;;;;82.40;36.80;;;;;;;0.80;100.00;99706.42;5047127;57;1138524;-74
2023/12/10 10:08:21;;;;;;;62.10;31.33;;;;;;;0.85;100.00;99717.91;5066650;57;1138881;-74
2023/12/10 10:13:26;;;;;;;75.93;38.13;;;;;;;0.89;100.00;99704.67;5046267;56;1138838;-73
2023/12/10 10:18:33;;;;;;;91.10;42.53;;;;;;;0.91;100.00;99695.48;5034824;56;1138912;-80
2023/12/10 10:23:38;;;;;;;74.07;35.33;;;;;;;0.91;100.00;99697.63;5011014;56;1138809;-81
2023/12/10 10:28:46;;;;;;;157.65;64.32;;;;;;;0.93;100.00;99700.97;5035866;56;1184358;-78
2023/12/10 10:33:53;;;;;;;72.27;37.85;;;;;;;0.95;100.00;99709.55;5032687;56;1140820;-77
2023/12/10 10:38:59;;;;;;;52.43;26.63;;;;;;;1.00;100.00;99711.92;5045980;57;1138917;-79
2023/12/10 10:44:05;;;;;;;45.10;25.50;;;;;;;1.00;100.00;99713.22;5045341;56;1138914;-77
2023/12/10 10:49:11;;;;;;;58.63;30.27;;;;;;;1.01;100.00;99698.83;4899842;58;1138810;-79
2023/12/10 10:54:17;;;;;;;69.47;38.20;;;;;;;1.07;100.00;99691.14;4847873;58;1138894;-80
2023/12/10 10:59:36;;;;;;;63.90;29.17;;;;;;;1.13;100.00;99703.85;5048503;55;1138630;-81
2023/12/10 11:04:42;;;;;;;143.87;57.70;;;;;;;1.18;100.00;99710.13;5014521;55;1138888;-77
2023/12/10 11:10:05;;;;;;;46.40;24.93;;;;;;;1.23;100.00;99715.47;4908614;57;1140906;-80
2023/12/10 11:15:25;;;;;;;54.60;27.60;;;;;;;1.26;100.00;99711.41;5024745;56;1138763;-74
2023/12/10 11:20:37;;;;;;;92.63;49.90;;;;;;;1.27;100.00;99717.00;5065961;56;1138607;-78
2023/12/10 11:25:43;;;;;;;60.70;29.87;;;;;;;1.24;100.00;99721.05;5033973;57;1138688;-83
2023/12/10 11:30:49;;;;;;;121.70;68.17;;;;;;;1.21;100.00;99723.00;5032976;56;1138840;-74
2023/12/10 11:36:02;;;;;;;63.67;32.20;;;;;;;1.20;100.00;99737.78;5004704;56;1140827;-78
2023/12/10 11:41:04;;;;;;;114.97;63.08;;;;;;;1.25;100.00;99734.46;5008126;56;1138876;-81
2023/12/10 11:46:10;;;;;;;56.30;30.07;;;;;;;1.32;100.00;99733.23;5002196;57;1141219;-78
2023/12/10 11:51:18;;;;;;;67.00;30.67;;;;;;;1.34;100.00;99714.92;4951969;56;1224943;-80
2023/12/10 11:56:23;;;;;;;63.53;32.30;;;;;;;1.34;100.00;99722.28;5050332;56;1138738;-79
2023/12/10 12:01:31;;;;;;;67.90;35.17;;;;;;;1.34;100.00;99724.89;5023660;56;1138766;-78
2023/12/10 12:06:42;;;;;;;81.37;43.53;;;;;;;1.37;100.00;99731.24;4995408;56;1138879;-78
2023/12/10 12:11:51;;;;;;;135.17;61.17;;;;;;;1.37;100.00;99715.61;5009794;57;1186955;-79
2023/12/10 12:16:57;;;;;;;55.90;28.37;;;;;;;1.41;100.00;99718.41;4984193;57;1140917;-78
2023/12/10 12:22:03;;;;;;;183.53;76.97;;;;;;;1.42;100.00;99721.86;5032558;57;1185366;-78
2023/12/10 12:27:09;;;;;;;130.63;54.17;;;;;;;1.43;100.00;99726.61;5045659;57;1140745;-76
2023/12/10 12:32:15;;;;;;;141.57;56.93;;;;;;;1.43;100.00;99727.91;5071181;56;1140981;-77
2023/12/10 12:37:20;;;;;;;154.40;55.10;;;;;;;1.44;100.00;99728.30;5068760;56;1140841;-78
2023/12/10 12:42:26;;;;;;;72.33;35.43;;;;;;;1.46;100.00;99719.94;5028604;56;1213474;-78
2023/12/10 12:47:32;;;;;;;74.47;37.33;;;;;;;1.45;100.00;99721.70;4992481;57;1139013;-78
2023/12/10 12:52:37;;;;;;;66.07;34.50;;;;;;;1.44;100.00;99726.53;4963878;57;1241693;-78
2023/12/10 12:57:43;;;;;;;70.77;34.03;;;;;;;1.44;100.00;99721.78;5031467;56;1236377;-79
2023/12/10 13:02:49;;;;;;;85.07;37.73;;;;;;;1.47;100.00;99724.23;5022055;56;1243590;-78
2023/12/10 13:08:00;;;;;;;65.52;32.33;;;;;;;1.47;100.00;99725.53;5037466;56;1139503;-79
2023/12/10 13:13:02;;;;;;;57.97;29.33;;;;;;;1.46;100.00;99727.30;5115115;56;1174667;-77
2023/12/10 13:18:08;;;;;;;98.27;44.00;;;;;;;1.47;100.00;99726.84;5059942;56;1252523;-78
2023/12/10 13:23:14;;;;;;;103.00;52.97;;;;;;;1.47;100.00;99727.68;5065041;56;1240414;-77
2023/12/10 13:28:19;;;;;;;120.93;53.67;;;;;;;1.50;100.00;99727.98;5042424;56;1256465;-78
2023/12/10 13:33:25;;;;;;;102.10;43.83;;;;;;;1.51;100.00;99724.45;5032541;55;1258331;-78
2023/12/10 13:38:31;;;;;;;111.80;48.40;;;;;;;1.50;100.00;99724.92;5006164;56;1258805;-78
2023/12/10 13:43:37;;;;;;;72.20;33.40;;;;;;;1.51;100.00;99731.81;4961754;57;1254526;-78
2023/12/10 13:48:42;;;;;;;130.20;53.97;;;;;;;1.53;100.00;99727.34;5023504;55;1252920;-79
2023/12/10 13:53:49;;;;;;;84.97;37.47;;;;;;;1.55;100.00;99729.86;5071922;56;1141663;-79
2023/12/10 13:58:54;;;;;;;118.60;48.23;;;;;;;1.58;100.00;99726.64;5052912;56;1138881;-72
2023/12/10 14:04:00;;;;;;;78.30;38.30;;;;;;;1.60;100.00;99726.09;5045753;56;1256502;-69
2023/12/10 14:09:06;;;;;;;111.75;54.73;;;;;;;1.61;100.00;99728.25;5047849;57;1138794;-71
2023/12/10 14:14:12;;;;;;;90.30;44.90;;;;;;;1.61;100.00;99726.94;5067216;56;1141269;-70
2023/12/10 14:19:18;;;;;;;108.90;51.47;;;;;;;1.61;100.00;99731.70;5047011;56;1172356;-69
2023/12/10 14:24:23;;;;;;;77.57;38.63;;;;;;;1.59;100.00;99728.78;5046562;56;1201984;-70
2023/12/10 14:29:29;;;;;;;116.63;52.27;;;;;;;1.60;100.00;99737.83;5064738;56;1138578;-71
2023/12/10 14:34:35;;;;;;;96.00;41.53;;;;;;;1.62;100.00;99724.72;4979727;56;1140667;-71
2023/12/10 14:39:41;;;;;;;91.10;43.47;;;;;;;1.64;100.00;99725.48;4996196;56;1139018;-70
2023/12/10 14:44:48;;;;;;;62.23;28.17;;;;;;;1.64;100.00;99723.72;5063396;56;1138848;-71
2023/12/10 14:49:54;;;;;;;96.87;50.40;;;;;;;1.66;100.00;99716.66;5048920;55;1139123;-72
2023/12/10 14:55:00;;;;;;;68.35;36.83;;;;;;;1.68;100.00;99720.00;5048482;56;1139055;-69
2023/12/10 15:00:08;;;;;;;74.42;38.28;;;;;;;1.72;100.00;99715.47;5042765;56;1139229;-71
2023/12/10 15:05:14;;;;;;;88.77;43.73;;;;;;;1.75;100.00;99707.03;5055679;57;1138340;-70
2023/12/10 15:10:20;;;;;;;89.40;46.50;;;;;;;1.78;100.00;99710.39;5035445;56;1138767;-70
2023/12/10 15:15:26;;;;;;;132.57;66.20;;;;;;;1.80;100.00;99715.91;4986973;56;1139062;-71
2023/12/10 15:20:31;;;;;;;88.03;43.40;;;;;;;1.85;100.00;99719.09;5011071;57;1141003;-70
2023/12/10 15:25:37;;;;;;;78.53;39.83;;;;;;;1.86;100.00;99721.23;4992319;56;1139374;-77
2023/12/10 15:30:43;;;;;;;104.43;58.43;;;;;;;1.93;100.00;99719.98;4990817;57;1138907;-78
2023/12/10 15:35:49;;;;;;;87.37;46.60;;;;;;;1.98;100.00;99718.82;4995493;57;1140910;-79
2023/12/10 15:40:54;;;;;;;136.10;66.27;;;;;;;2.02;100.00;99720.31;5013945;57;1138822;-78
2023/12/10 15:46:00;;;;;;;99.87;48.03;;;;;;;2.04;100.00;99724.14;4996321;57;1141072;-80
2023/12/10 15:51:06;;;;;;;98.57;51.43;;;;;;;2.07;100.00;99718.30;4997586;57;1138993;-80
2023/12/10 15:56:11;;;;;;;93.13;45.87;;;;;;;2.11;100.00;99700.26;5016816;57;1138994;-78
2023/12/10 16:01:20;;;;;;;92.00;43.40;;;;;;;2.16;100.00;99703.05;4998311;57;1139051;-76
2023/12/10 16:06:24;;;;;;;131.00;66.33;;;;;;;2.22;100.00;99709.23;5011790;56;1138947;-81
2023/12/10 16:11:30;;;;;;;69.30;34.20;;;;;;;2.26;100.00;99702.47;5038042;56;1142985;-77
2023/12/10 16:16:36;;;;;;;103.60;50.53;;;;;;;2.31;100.00;99697.81;4991665;56;1141067;-80
2023/12/10 16:21:42;;;;;;;90.43;45.60;;;;;;;2.31;100.00;99700.42;5036007;56;1142144;-78
2023/12/10 16:26:49;;;;;;;112.30;53.70;;;;;;;2.29;100.00;99697.05;5095965;56;1138791;-79
2023/12/10 16:31:54;;;;;;;84.37;41.37;;;;;;;2.32;100.00;99685.61;5061427;57;1140902;-80
2023/12/10 16:37:01;;;;;;;78.57;38.30;;;;;;;2.34;100.00;99685.90;5046089;56;1139007;-80
2023/12/10 16:42:06;;;;;;;78.43;36.77;;;;;;;2.37;100.00;99686.19;5046613;55;1138712;-79
2023/12/10 16:47:13;;;;;;;61.63;30.90;;;;;;;2.40;100.00;99680.34;5065879;57;1138845;-79
2023/12/10 16:52:19;;;;;;;55.33;29.48;;;;;;;2.44;100.00;99683.13;5045773;56;1138815;-77
2023/12/10 16:57:25;;;;;;;113.47;54.93;;;;;;;2.51;100.00;99682.79;5046146;57;1138851;-81
2023/12/10 17:02:31;;;;;;;128.97;59.97;;;;;;;2.58;100.00;99682.82;5065108;57;1141117;-80
2023/12/10 17:07:37;;;;;;;91.50;41.37;;;;;;;2.62;100.00;99677.31;5046326;56;1141068;-80
2023/12/10 17:12:44;;;;;;;121.33;42.93;;;;;;;2.69;100.00;99676.03;5046413;56;1138817;-79
2023/12/10 17:17:50;;;;;;;213.47;58.83;;;;;;;2.76;100.00;99664.75;5046031;56;1141080;-81
2023/12/10 17:22:55;;;;;;;161.20;47.90;;;;;;;2.83;100.00;99665.62;5065970;56;1141013;-77
2023/12/10 17:28:01;;;;;;;161.70;61.73;;;;;;;2.90;100.00;99665.27;5035736;56;1140937;-83
2023/12/10 17:33:07;;;;;;;125.62;47.58;;;;;;;2.95;100.00;99662.73;5034294;57;1141072;-80
2023/12/10 17:38:13;;;;;;;127.97;42.70;;;;;;;2.99;100.00;99659.02;5065535;57;1141201;-79
2023/12/10 17:43:18;;;;;;;172.60;55.70;;;;;;;3.02;100.00;99651.00;5040518;57;1140839;-76
2023/12/10 17:48:24;;;;;;;250.77;72.83;;;;;;;3.07;100.00;99646.78;5044154;56;1141119;-78
2023/12/10 17:53:30;;;;;;;122.50;41.00;;;;;;;3.10;100.00;99640.91;5020735;55;1140865;-80
2023/12/10 17:58:36;;;;;;;82.47;30.73;;;;;;;3.14;100.00;99638.48;5011565;56;1141064;-82
2023/12/10 18:03:41;;;;;;;89.80;33.10;;;;;;;3.16;100.00;99643.16;5001437;57;1138804;-80
2023/12/10 18:08:47;;;;;;;52.83;21.93;;;;;;;3.20;100.00;99639.90;5020361;57;1138702;-78
2023/12/10 18:13:54;;;;;;;53.92;23.05;;;;;;;3.25;100.00;99622.14;5019321;57;1138770;-81
2023/12/10 18:19:01;;;;;;;74.37;26.77;;;;;;;3.29;100.00;99609.27;5013842;56;1138828;-82
2023/12/10 18:24:07;;;;;;;61.37;24.23;;;;;;;3.32;100.00;99615.62;5019830;57;1138883;-85
2023/12/10 18:29:12;;;;;;;37.17;18.53;;;;;;;3.36;100.00;99606.63;5011099;56;1138919;-82
2023/12/10 18:34:18;;;;;;;42.43;20.73;;;;;;;3.41;100.00;99605.88;5002759;55;1138914;-80
2023/12/10 18:39:24;;;;;;;149.00;49.63;;;;;;;3.45;100.00;99603.45;5047196;55;1139029;-81
2023/12/10 18:44:30;;;;;;;122.53;41.50;;;;;;;3.50;100.00;99592.72;5012830;56;1140872;-82
2023/12/10 18:49:36;;;;;;;115.13;40.10;;;;;;;3.57;100.00;99586.62;5008006;56;1141022;-81
2023/12/10 18:54:42;;;;;;;155.87;49.80;;;;;;;3.60;100.00;99582.51;5026800;56;1140835;-80
2023/12/10 18:59:47;;;;;;;74.93;26.57;;;;;;;3.64;100.00;99581.38;5007613;57;1140894;-78
2023/12/10 19:04:53;;;;;;;162.07;51.13;;;;;;;3.66;100.00;99578.20;5043783;57;1138693;-83
2023/12/10 19:10:00;;;;;;;83.05;28.38;;;;;;;3.68;100.00;99564.07;5040735;56;1140976;-79
2023/12/10 19:15:07;;;;;;;106.30;39.13;;;;;;;3.71;100.00;99565.66;5066470;56;1138775;-83
2023/12/10 19:20:27;;;;;;;133.07;42.37;;;;;;;3.73;100.00;99558.08;5046549;56;1140935;-80
2023/12/10 19:25:32;;;;;;;25.80;14.83;;;;;;;3.78;100.00;99559.11;5045502;56;1140765;-82
2023/12/10 19:30:38;;;;;;;57.80;26.20;;;;;;;3.83;100.00;99564.85;5066768;57;1138927;-84
2023/12/10 19:35:44;;;;;;;34.00;13.30;;;;;;;3.84;100.00;99546.92;5046809;57;1138767;-81
2023/12/10 19:40:53;;;;;;;27.20;14.23;;;;;;;3.87;100.00;99554.56;5046455;56;1138659;-82
2023/12/10 19:45:57;;;;;;;27.37;14.80;;;;;;;3.88;100.00;99546.63;5045927;57;1138683;-80
2023/12/10 19:51:04;;;;;;;61.88;35.55;;;;;;;3.91;100.00;99551.29;5066047;57;1138832;-78
2023/12/10 19:56:10;;;;;;;29.60;13.58;;;;;;;3.94;100.00;99540.63;5046012;57;1138689;-79
2023/12/10 20:01:17;;;;;;;30.70;14.00;;;;;;;3.97;100.00;99541.74;5046002;57;1138739;-78
2023/12/10 20:06:23;;;;;;;28.37;14.17;;;;;;;3.99;100.00;99535.44;5065807;56;1139044;-79
2023/12/10 20:11:29;;;;;;;25.40;11.90;;;;;;;4.03;100.00;99525.62;5037756;56;1139037;-80
2023/12/10 20:16:34;;;;;;;23.63;12.27;;;;;;;4.09;100.00;99529.15;5034077;56;1138632;-78
2023/12/10 20:21:41;;;;;;;28.23;14.30;;;;;;;4.14;100.00;99534.89;5039701;56;1138865;-81
2023/12/10 20:26:47;;;;;;;27.83;13.17;;;;;;;4.17;100.00;99524.23;4993955;56;1139105;-80
2023/12/10 20:31:53;;;;;;;21.70;10.67;;;;;;;4.21;100.00;99513.93;5001645;56;1139113;-81
2023/12/10 20:36:58;;;;;;;23.73;9.53;;;;;;;4.25;100.00;99519.33;4992819;56;1139005;-80
2023/12/10 20:42:04;;;;;;;18.70;10.35;;;;;;;4.29;100.00;99514.23;5029042;56;1136889;-82
2023/12/10 20:47:10;;;;;;;23.03;9.67;;;;;;;4.36;100.00;99515.51;5010015;56;1138754;-77
2023/12/10 20:52:16;;;;;;;19.73;8.03;;;;;;;4.41;100.00;99508.19;4991809;57;1136650;-81
2023/12/10 20:57:21;;;;;;;16.80;7.37;;;;;;;4.45;100.00;99510.94;5005884;57;1136501;-79
2023/12/10 21:02:27;;;;;;;17.17;7.80;;;;;;;4.49;100.00;99490.63;4986655;56;1136796;-81
2023/12/10 21:07:33;;;;;;;13.03;6.90;;;;;;;4.53;100.00;99498.18;5006016;56;1136685;-82
2023/12/10 21:12:39;;;;;;;21.40;8.70;;;;;;;4.57;100.00;99492.27;5024015;57;1136557;-83
2023/12/10 21:17:46;;;;;;;17.43;7.33;;;;;;;4.60;100.00;99494.17;5000244;55;1136561;-83
2023/12/10 21:22:52;;;;;;;21.87;7.17;;;;;;;4.62;100.00;99476.21;5003301;57;1136610;-80
2023/12/10 21:27:58;;;;;;;19.87;7.95;;;;;;;4.63;100.00;99468.25;5005113;56;1136614;-81
2023/12/10 21:33:04;;;;;;;25.67;8.27;;;;;;;4.65;100.00;99462.91;5025484;56;1136560;-81
2023/12/10 21:38:10;;;;;;;19.40;8.20;;;;;;;4.66;100.00;99482.45;5008246;56;1136587;-81
2023/12/10 21:43:16;;;;;;;24.13;8.23;;;;;;;4.67;100.00;99468.88;5037087;57;1136676;-79
2023/12/10 21:48:22;;;;;;;27.70;9.57;;;;;;;4.68;100.00;99466.63;4987753;57;1136773;-79
2023/12/10 21:53:27;;;;;;;33.47;9.23;;;;;;;4.69;100.00;99465.22;4992795;56;1136753;-80
2023/12/10 21:58:33;;;;;;;27.20;8.10;;;;;;;4.71;100.00;99462.02;5036848;55;1136573;-81
2023/12/10 22:03:39;;;;;;;26.13;7.43;;;;;;;4.72;100.00;99469.41;4979359;57;1136756;-80
2023/12/10 22:08:45;;;;;;;18.97;7.03;;;;;;;4.73;100.00;99464.53;4953781;57;1136700;-80
2023/12/10 22:13:51;;;;;;;20.15;6.35;;;;;;;4.73;100.00;99461.45;4962122;57;1137112;-78
2023/12/10 22:18:57;;;;;;;26.10;8.63;;;;;;;4.75;100.00;99463.92;4976131;56;1136847;-82
2023/12/10 22:24:02;;;;;;;25.97;8.05;;;;;;;4.73;100.00;99452.28;5015460;55;1140566;-77
2023/12/10 22:29:08;;;;;;;34.75;8.18;;;;;;;4.76;100.00;99464.30;5009630;56;1136849;-79
2023/12/10 22:34:13;;;;;;;25.43;7.30;;;;;;;4.74;100.00;99453.92;5059977;54;1136645;-80
2023/12/10 22:39:19;;;;;;;28.33;10.23;;;;;;;4.75;100.00;99452.98;5078939;56;1136626;-75
2023/12/10 22:44:25;;;;;;;22.07;6.40;;;;;;;4.74;100.00;99446.06;5059606;55;1138819;-81
2023/12/10 22:49:31;;;;;;;18.77;6.17;;;;;;;4.74;100.00;99422.97;5051783;55;1136676;-78